Lacoochee, Florida
Current Conditions -  °F | °C
As of 6:55 PM on Saturday 25 Oct 2014 (Local Time) from KZPH Reporting Station
Clear Clear  
Wind Chill: 68°   Ceiling: Unl
Heat Index: 68°   Visibility: 10mi
Dew Point: 50°   Wind: 0mph
Humidity: 52%   Direction: NA
Pressure: 29.97"   Gusts: NA
Location:  28.47°N, 82.17°W
Report Text: KZPH 252255Z AUTO 00000KT 10SM CLR 20/10 A2997 RMK AO2
Loading
Personal Weather Stations






























Interactive Weather Map
Tropical Storm Tracking
New forecast layout! Learn more

10-Day Weather Forecast

Advertisements
Track Severe Weather on mobile